sensor_id;sensor_type;location;lat;lon;timestamp;P1;durP1;ratioP1;P2;durP2;ratioP2
6193;SDS011;3130;41.564;23.280;2023-04-16T00:00:17;2.43;;;2.23;;
6193;SDS011;3130;41.564;23.280;2023-04-16T00:02:44;2.63;;;2.17;;
6193;SDS011;3130;41.564;23.280;2023-04-16T00:05:12;2.87;;;2.67;;
6193;SDS011;3130;41.564;23.280;2023-04-16T00:07:39;2.80;;;2.30;;
6193;SDS011;3130;41.564;23.280;2023-04-16T00:10:06;3.23;;;2.80;;
6193;SDS011;3130;41.564;23.280;2023-04-16T00:12:35;3.80;;;2.47;;
6193;SDS011;3130;41.564;23.280;2023-04-16T00:15:02;2.57;;;2.37;;
6193;SDS011;3130;41.564;23.280;2023-04-16T00:17:29;6.13;;;3.17;;
6193;SDS011;3130;41.564;23.280;2023-04-16T00:19:56;2.53;;;2.33;;
6193;SDS011;3130;41.564;23.280;2023-04-16T00:22:23;3.73;;;2.47;;
6193;SDS011;3130;41.564;23.280;2023-04-16T00:24:50;3.73;;;2.87;;
6193;SDS011;3130;41.564;23.280;2023-04-16T00:27:17;2.50;;;2.30;;
6193;SDS011;3130;41.564;23.280;2023-04-16T00:29:46;2.87;;;2.60;;
6193;SDS011;3130;41.564;23.280;2023-04-16T00:32:13;4.70;;;2.53;;
6193;SDS011;3130;41.564;23.280;2023-04-16T00:34:41;3.90;;;2.40;;
6193;SDS011;3130;41.564;23.280;2023-04-16T00:37:08;2.93;;;2.23;;
6193;SDS011;3130;41.564;23.280;2023-04-16T00:39:35;2.93;;;2.33;;
6193;SDS011;3130;41.564;23.280;2023-04-16T00:42:02;3.30;;;3.00;;
6193;SDS011;3130;41.564;23.280;2023-04-16T00:44:29;2.77;;;2.33;;
6193;SDS011;3130;41.564;23.280;2023-04-16T00:47:00;10.30;;;2.90;;
6193;SDS011;3130;41.564;23.280;2023-04-16T00:49:28;3.03;;;2.77;;
6193;SDS011;3130;41.564;23.280;2023-04-16T00:51:56;3.23;;;2.43;;
6193;SDS011;3130;41.564;23.280;2023-04-16T00:54:23;2.47;;;2.27;;
6193;SDS011;3130;41.564;23.280;2023-04-16T00:56:50;4.27;;;2.83;;
6193;SDS011;3130;41.564;23.280;2023-04-16T00:59:18;3.03;;;2.37;;
6193;SDS011;3130;41.564;23.280;2023-04-16T01:01:45;3.90;;;2.23;;
6193;SDS011;3130;41.564;23.280;2023-04-16T01:04:15;3.90;;;2.83;;
6193;SDS011;3130;41.564;23.280;2023-04-16T01:06:42;4.60;;;2.73;;
6193;SDS011;3130;41.564;23.280;2023-04-16T01:09:09;4.03;;;2.60;;
6193;SDS011;3130;41.564;23.280;2023-04-16T01:11:36;2.87;;;2.67;;
6193;SDS011;3130;41.564;23.280;2023-04-16T01:14:03;5.37;;;3.20;;
6193;SDS011;3130;41.564;23.280;2023-04-16T01:16:31;3.40;;;2.90;;
6193;SDS011;3130;41.564;23.280;2023-04-16T01:18:58;3.40;;;2.67;;
6193;SDS011;3130;41.564;23.280;2023-04-16T01:21:26;6.93;;;2.63;;
6193;SDS011;3130;41.564;23.280;2023-04-16T01:23:53;3.27;;;2.57;;
6193;SDS011;3130;41.564;23.280;2023-04-16T01:26:20;15.20;;;4.33;;
6193;SDS011;3130;41.564;23.280;2023-04-16T01:28:48;3.47;;;3.13;;
6193;SDS011;3130;41.564;23.280;2023-04-16T01:31:15;4.40;;;2.63;;
6193;SDS011;3130;41.564;23.280;2023-04-16T01:33:42;3.73;;;2.63;;
6193;SDS011;3130;41.564;23.280;2023-04-16T01:36:09;3.73;;;3.07;;
6193;SDS011;3130;41.564;23.280;2023-04-16T01:38:37;4.53;;;2.40;;
6193;SDS011;3130;41.564;23.280;2023-04-16T01:41:05;3.90;;;2.77;;
6193;SDS011;3130;41.564;23.280;2023-04-16T01:43:32;3.03;;;2.83;;
6193;SDS011;3130;41.564;23.280;2023-04-16T01:46:07;3.03;;;2.73;;
6193;SDS011;3130;41.564;23.280;2023-04-16T01:48:38;7.37;;;2.60;;
6193;SDS011;3130;41.564;23.280;2023-04-16T01:51:06;2.60;;;2.40;;
6193;SDS011;3130;41.564;23.280;2023-04-16T01:53:33;5.37;;;2.93;;
6193;SDS011;3130;41.564;23.280;2023-04-16T01:56:01;4.03;;;2.27;;
6193;SDS011;3130;41.564;23.280;2023-04-16T01:58:28;4.20;;;2.80;;
6193;SDS011;3130;41.564;23.280;2023-04-16T02:00:56;5.77;;;2.93;;
6193;SDS011;3130;41.564;23.280;2023-04-16T02:03:24;3.50;;;2.47;;
6193;SDS011;3130;41.564;23.280;2023-04-16T02:05:51;3.07;;;2.87;;
6193;SDS011;3130;41.564;23.280;2023-04-16T02:08:18;3.27;;;3.00;;
6193;SDS011;3130;41.564;23.280;2023-04-16T02:10:45;3.60;;;2.30;;
6193;SDS011;3130;41.564;23.280;2023-04-16T02:13:14;5.73;;;2.33;;
6193;SDS011;3130;41.564;23.280;2023-04-16T02:15:43;3.83;;;2.70;;
6193;SDS011;3130;41.564;23.280;2023-04-16T02:18:12;3.57;;;2.87;;
6193;SDS011;3130;41.564;23.280;2023-04-16T02:20:40;2.70;;;2.50;;
6193;SDS011;3130;41.564;23.280;2023-04-16T02:23:07;3.20;;;2.90;;
6193;SDS011;3130;41.564;23.280;2023-04-16T02:25:38;2.80;;;2.60;;
6193;SDS011;3130;41.564;23.280;2023-04-16T02:28:06;5.70;;;2.83;;
6193;SDS011;3130;41.564;23.280;2023-04-16T02:30:34;3.93;;;2.90;;
6193;SDS011;3130;41.564;23.280;2023-04-16T02:33:02;2.90;;;2.70;;
6193;SDS011;3130;41.564;23.280;2023-04-16T02:35:31;4.30;;;2.47;;
6193;SDS011;3130;41.564;23.280;2023-04-16T02:37:58;2.70;;;2.43;;
6193;SDS011;3130;41.564;23.280;2023-04-16T02:40:26;3.77;;;2.90;;
6193;SDS011;3130;41.564;23.280;2023-04-16T02:42:53;2.50;;;2.30;;
6193;SDS011;3130;41.564;23.280;2023-04-16T02:45:21;4.30;;;2.60;;
6193;SDS011;3130;41.564;23.280;2023-04-16T02:47:50;2.73;;;2.17;;
6193;SDS011;3130;41.564;23.280;2023-04-16T02:50:17;4.47;;;2.37;;
6193;SDS011;3130;41.564;23.280;2023-04-16T02:52:44;3.57;;;2.97;;
6193;SDS011;3130;41.564;23.280;2023-04-16T02:55:11;2.43;;;2.30;;
6193;SDS011;3130;41.564;23.280;2023-04-16T02:57:38;3.93;;;2.50;;
6193;SDS011;3130;41.564;23.280;2023-04-16T03:00:07;2.60;;;2.40;;
6193;SDS011;3130;41.564;23.280;2023-04-16T03:02:35;2.77;;;2.57;;
6193;SDS011;3130;41.564;23.280;2023-04-16T03:05:03;3.50;;;3.20;;
6193;SDS011;3130;41.564;23.280;2023-04-16T03:07:31;2.60;;;2.40;;
6193;SDS011;3130;41.564;23.280;2023-04-16T03:09:58;4.60;;;2.43;;
6193;SDS011;3130;41.564;23.280;2023-04-16T03:12:25;3.67;;;2.30;;
6193;SDS011;3130;41.564;23.280;2023-04-16T03:14:52;2.93;;;2.47;;
6193;SDS011;3130;41.564;23.280;2023-04-16T03:17:19;4.57;;;2.57;;
6193;SDS011;3130;41.564;23.280;2023-04-16T03:19:46;2.50;;;2.13;;
6193;SDS011;3130;41.564;23.280;2023-04-16T03:22:16;2.93;;;2.63;;
6193;SDS011;3130;41.564;23.280;2023-04-16T03:24:43;4.47;;;2.60;;
6193;SDS011;3130;41.564;23.280;2023-04-16T03:27:10;2.50;;;2.30;;
6193;SDS011;3130;41.564;23.280;2023-04-16T03:29:37;3.47;;;2.73;;
6193;SDS011;3130;41.564;23.280;2023-04-16T03:32:04;2.60;;;2.40;;
6193;SDS011;3130;41.564;23.280;2023-04-16T03:34:31;2.40;;;2.20;;
6193;SDS011;3130;41.564;23.280;2023-04-16T03:36:58;2.80;;;2.60;;
6193;SDS011;3130;41.564;23.280;2023-04-16T03:39:26;3.63;;;2.10;;
6193;SDS011;3130;41.564;23.280;2023-04-16T03:41:53;3.37;;;2.63;;
6193;SDS011;3130;41.564;23.280;2023-04-16T03:44:20;5.27;;;2.60;;
6193;SDS011;3130;41.564;23.280;2023-04-16T03:46:47;2.80;;;2.43;;
6193;SDS011;3130;41.564;23.280;2023-04-16T03:49:14;6.20;;;2.20;;
6193;SDS011;3130;41.564;23.280;2023-04-16T03:51:41;2.63;;;2.43;;
6193;SDS011;3130;41.564;23.280;2023-04-16T03:54:08;4.97;;;2.97;;
6193;SDS011;3130;41.564;23.280;2023-04-16T03:56:37;4.53;;;3.70;;
6193;SDS011;3130;41.564;23.280;2023-04-16T03:59:05;2.70;;;2.50;;
6193;SDS011;3130;41.564;23.280;2023-04-16T04:01:32;5.57;;;2.57;;
6193;SDS011;3130;41.564;23.280;2023-04-16T04:03:59;5.70;;;2.63;;
6193;SDS011;3130;41.564;23.280;2023-04-16T04:06:26;4.37;;;2.93;;
6193;SDS011;3130;41.564;23.280;2023-04-16T04:08:53;3.13;;;2.83;;
6193;SDS011;3130;41.564;23.280;2023-04-16T04:11:20;3.07;;;2.73;;
6193;SDS011;3130;41.564;23.280;2023-04-16T04:13:48;2.33;;;2.23;;
6193;SDS011;3130;41.564;23.280;2023-04-16T04:16:15;2.63;;;2.37;;
6193;SDS011;3130;41.564;23.280;2023-04-16T04:18:42;3.40;;;2.57;;
6193;SDS011;3130;41.564;23.280;2023-04-16T04:21:09;2.50;;;2.30;;
6193;SDS011;3130;41.564;23.280;2023-04-16T04:23:36;3.90;;;3.13;;
6193;SDS011;3130;41.564;23.280;2023-04-16T04:26:05;3.00;;;2.80;;
6193;SDS011;3130;41.564;23.280;2023-04-16T04:28:33;5.87;;;3.90;;
6193;SDS011;3130;41.564;23.280;2023-04-16T04:31:02;10.57;;;3.90;;
6193;SDS011;3130;41.564;23.280;2023-04-16T04:33:29;8.93;;;6.07;;
6193;SDS011;3130;41.564;23.280;2023-04-16T04:35:56;13.83;;;6.70;;
6193;SDS011;3130;41.564;23.280;2023-04-16T04:38:23;9.00;;;6.10;;
6193;SDS011;3130;41.564;23.280;2023-04-16T04:40:50;10.63;;;6.60;;
6193;SDS011;3130;41.564;23.280;2023-04-16T04:43:18;9.03;;;5.20;;
6193;SDS011;3130;41.564;23.280;2023-04-16T04:45:45;4.70;;;3.67;;
6193;SDS011;3130;41.564;23.280;2023-04-16T04:48:14;7.67;;;3.50;;
6193;SDS011;3130;41.564;23.280;2023-04-16T04:50:42;4.73;;;3.77;;
6193;SDS011;3130;41.564;23.280;2023-04-16T04:53:10;4.20;;;3.80;;
6193;SDS011;3130;41.564;23.280;2023-04-16T04:55:39;3.97;;;3.53;;
6193;SDS011;3130;41.564;23.280;2023-04-16T04:58:06;2.87;;;2.67;;
6193;SDS011;3130;41.564;23.280;2023-04-16T05:00:34;2.50;;;2.30;;
6193;SDS011;3130;41.564;23.280;2023-04-16T05:03:01;4.13;;;2.83;;
6193;SDS011;3130;41.564;23.280;2023-04-16T05:05:30;3.87;;;3.40;;
6193;SDS011;3130;41.564;23.280;2023-04-16T05:07:57;3.67;;;3.17;;
6193;SDS011;3130;41.564;23.280;2023-04-16T05:10:25;5.07;;;3.83;;
6193;SDS011;3130;41.564;23.280;2023-04-16T05:12:52;6.50;;;4.50;;
6193;SDS011;3130;41.564;23.280;2023-04-16T05:15:19;7.33;;;3.90;;
6193;SDS011;3130;41.564;23.280;2023-04-16T05:17:46;6.93;;;4.53;;
6193;SDS011;3130;41.564;23.280;2023-04-16T05:20:13;5.13;;;4.20;;
6193;SDS011;3130;41.564;23.280;2023-04-16T05:22:41;4.93;;;3.67;;
6193;SDS011;3130;41.564;23.280;2023-04-16T05:25:08;6.20;;;4.07;;
6193;SDS011;3130;41.564;23.280;2023-04-16T05:27:35;8.60;;;6.43;;
6193;SDS011;3130;41.564;23.280;2023-04-16T05:30:03;8.70;;;5.73;;
6193;SDS011;3130;41.564;23.280;2023-04-16T05:32:30;9.33;;;5.53;;
6193;SDS011;3130;41.564;23.280;2023-04-16T05:34:57;6.37;;;4.77;;
6193;SDS011;3130;41.564;23.280;2023-04-16T05:37:24;4.93;;;3.70;;
6193;SDS011;3130;41.564;23.280;2023-04-16T05:39:52;9.80;;;5.30;;
6193;SDS011;3130;41.564;23.280;2023-04-16T05:42:19;5.97;;;4.63;;
6193;SDS011;3130;41.564;23.280;2023-04-16T05:44:46;5.77;;;4.20;;
6193;SDS011;3130;41.564;23.280;2023-04-16T05:47:13;4.50;;;3.90;;
6193;SDS011;3130;41.564;23.280;2023-04-16T05:49:41;5.80;;;3.73;;
6193;SDS011;3130;41.564;23.280;2023-04-16T05:52:08;6.53;;;2.93;;
6193;SDS011;3130;41.564;23.280;2023-04-16T05:54:35;7.03;;;3.20;;
6193;SDS011;3130;41.564;23.280;2023-04-16T05:57:04;7.87;;;5.97;;
6193;SDS011;3130;41.564;23.280;2023-04-16T05:59:31;15.57;;;11.00;;
6193;SDS011;3130;41.564;23.280;2023-04-16T06:01:58;12.30;;;8.77;;
6193;SDS011;3130;41.564;23.280;2023-04-16T06:04:25;11.03;;;8.57;;
6193;SDS011;3130;41.564;23.280;2023-04-16T06:06:52;13.70;;;7.97;;
6193;SDS011;3130;41.564;23.280;2023-04-16T06:09:19;9.83;;;7.23;;
6193;SDS011;3130;41.564;23.280;2023-04-16T06:11:46;12.20;;;8.10;;
6193;SDS011;3130;41.564;23.280;2023-04-16T06:14:15;8.43;;;6.07;;
6193;SDS011;3130;41.564;23.280;2023-04-16T06:16:42;10.87;;;8.90;;
6193;SDS011;3130;41.564;23.280;2023-04-16T06:19:09;14.67;;;10.70;;
6193;SDS011;3130;41.564;23.280;2023-04-16T06:21:36;12.33;;;9.57;;
6193;SDS011;3130;41.564;23.280;2023-04-16T06:24:03;14.07;;;10.63;;
6193;SDS011;3130;41.564;23.280;2023-04-16T06:26:31;16.73;;;10.77;;
6193;SDS011;3130;41.564;23.280;2023-04-16T06:28:58;12.43;;;11.03;;
6193;SDS011;3130;41.564;23.280;2023-04-16T06:31:27;14.03;;;11.03;;
6193;SDS011;3130;41.564;23.280;2023-04-16T06:33:55;13.87;;;11.63;;
6193;SDS011;3130;41.564;23.280;2023-04-16T06:36:22;14.10;;;11.80;;
6193;SDS011;3130;41.564;23.280;2023-04-16T06:38:51;11.97;;;10.67;;
6193;SDS011;3130;41.564;23.280;2023-04-16T06:41:18;17.10;;;12.20;;
6193;SDS011;3130;41.564;23.280;2023-04-16T06:43:46;19.57;;;13.50;;
6193;SDS011;3130;41.564;23.280;2023-04-16T06:46:13;14.83;;;12.23;;
6193;SDS011;3130;41.564;23.280;2023-04-16T06:48:42;12.53;;;10.70;;
6193;SDS011;3130;41.564;23.280;2023-04-16T06:51:09;17.47;;;12.60;;
6193;SDS011;3130;41.564;23.280;2023-04-16T06:53:37;15.07;;;11.57;;
6193;SDS011;3130;41.564;23.280;2023-04-16T06:56:04;15.37;;;10.87;;
6193;SDS011;3130;41.564;23.280;2023-04-16T06:58:32;11.10;;;9.67;;
6193;SDS011;3130;41.564;23.280;2023-04-16T07:00:59;11.00;;;9.70;;
6193;SDS011;3130;41.564;23.280;2023-04-16T07:03:26;16.30;;;11.47;;
6193;SDS011;3130;41.564;23.280;2023-04-16T07:05:55;16.27;;;12.80;;
6193;SDS011;3130;41.564;23.280;2023-04-16T07:08:22;14.23;;;11.27;;
6193;SDS011;3130;41.564;23.280;2023-04-16T07:10:49;13.53;;;10.07;;
6193;SDS011;3130;41.564;23.280;2023-04-16T07:13:18;14.40;;;9.50;;
6193;SDS011;3130;41.564;23.280;2023-04-16T07:15:45;12.57;;;8.93;;
6193;SDS011;3130;41.564;23.280;2023-04-16T07:18:12;11.47;;;8.77;;
6193;SDS011;3130;41.564;23.280;2023-04-16T07:20:39;8.90;;;7.60;;
6193;SDS011;3130;41.564;23.280;2023-04-16T07:23:08;10.50;;;7.50;;
6193;SDS011;3130;41.564;23.280;2023-04-16T07:25:35;10.90;;;8.20;;
6193;SDS011;3130;41.564;23.280;2023-04-16T07:28:02;9.75;;;7.55;;
6193;SDS011;3130;41.564;23.280;2023-04-16T07:30:29;8.60;;;6.93;;
6193;SDS011;3130;41.564;23.280;2023-04-16T07:32:58;11.65;;;7.43;;
6193;SDS011;3130;41.564;23.280;2023-04-16T07:35:26;7.63;;;5.72;;
6193;SDS011;3130;41.564;23.280;2023-04-16T07:37:53;8.93;;;5.78;;
6193;SDS011;3130;41.564;23.280;2023-04-16T07:40:21;9.30;;;6.47;;
6193;SDS011;3130;41.564;23.280;2023-04-16T07:42:49;8.40;;;6.07;;
6193;SDS011;3130;41.564;23.280;2023-04-16T07:45:16;8.13;;;5.87;;
6193;SDS011;3130;41.564;23.280;2023-04-16T07:47:43;10.97;;;8.10;;
6193;SDS011;3130;41.564;23.280;2023-04-16T07:50:10;9.20;;;7.57;;
6193;SDS011;3130;41.564;23.280;2023-04-16T07:52:38;10.00;;;7.37;;
6193;SDS011;3130;41.564;23.280;2023-04-16T07:55:06;9.17;;;6.93;;
6193;SDS011;3130;41.564;23.280;2023-04-16T07:57:36;9.63;;;6.57;;
6193;SDS011;3130;41.564;23.280;2023-04-16T08:00:03;9.10;;;6.57;;
6193;SDS011;3130;41.564;23.280;2023-04-16T08:02:31;10.30;;;9.03;;
6193;SDS011;3130;41.564;23.280;2023-04-16T08:04:58;9.07;;;6.43;;
6193;SDS011;3130;41.564;23.280;2023-04-16T08:07:25;8.13;;;7.13;;
6193;SDS011;3130;41.564;23.280;2023-04-16T08:09:52;8.57;;;6.47;;
6193;SDS011;3130;41.564;23.280;2023-04-16T08:12:20;5.30;;;4.77;;
6193;SDS011;3130;41.564;23.280;2023-04-16T08:14:48;5.63;;;4.67;;
6193;SDS011;3130;41.564;23.280;2023-04-16T08:17:15;10.20;;;8.10;;
6193;SDS011;3130;41.564;23.280;2023-04-16T08:19:43;6.00;;;4.73;;
6193;SDS011;3130;41.564;23.280;2023-04-16T08:22:10;4.17;;;3.70;;
6193;SDS011;3130;41.564;23.280;2023-04-16T08:24:37;7.70;;;3.97;;
6193;SDS011;3130;41.564;23.280;2023-04-16T08:27:04;3.97;;;2.67;;
6193;SDS011;3130;41.564;23.280;2023-04-16T08:29:31;2.60;;;2.40;;
6193;SDS011;3130;41.564;23.280;2023-04-16T08:32:00;5.73;;;3.50;;
6193;SDS011;3130;41.564;23.280;2023-04-16T08:34:27;3.17;;;2.97;;
6193;SDS011;3130;41.564;23.280;2023-04-16T08:36:54;3.97;;;2.63;;
6193;SDS011;3130;41.564;23.280;2023-04-16T08:39:22;5.97;;;3.83;;
6193;SDS011;3130;41.564;23.280;2023-04-16T08:41:49;5.43;;;4.93;;
6193;SDS011;3130;41.564;23.280;2023-04-16T08:44:20;10.37;;;5.40;;
6193;SDS011;3130;41.564;23.280;2023-04-16T08:46:51;4.53;;;3.13;;
6193;SDS011;3130;41.564;23.280;2023-04-16T08:49:22;5.47;;;2.80;;
6193;SDS011;3130;41.564;23.280;2023-04-16T08:51:51;5.73;;;4.07;;
6193;SDS011;3130;41.564;23.280;2023-04-16T08:54:23;4.60;;;3.93;;
6193;SDS011;3130;41.564;23.280;2023-04-16T08:56:59;6.50;;;3.00;;
6193;SDS011;3130;41.564;23.280;2023-04-16T08:59:30;4.77;;;3.80;;
6193;SDS011;3130;41.564;23.280;2023-04-16T09:01:57;3.67;;;2.60;;
6193;SDS011;3130;41.564;23.280;2023-04-16T09:04:26;5.40;;;2.17;;
6193;SDS011;3130;41.564;23.280;2023-04-16T09:06:54;6.27;;;3.37;;
6193;SDS011;3130;41.564;23.280;2023-04-16T09:09:24;3.90;;;3.03;;
6193;SDS011;3130;41.564;23.280;2023-04-16T09:11:52;3.67;;;3.27;;
6193;SDS011;3130;41.564;23.280;2023-04-16T09:14:19;4.60;;;2.70;;
6193;SDS011;3130;41.564;23.280;2023-04-16T09:16:47;4.60;;;3.73;;
6193;SDS011;3130;41.564;23.280;2023-04-16T09:19:15;4.63;;;3.03;;
6193;SDS011;3130;41.564;23.280;2023-04-16T09:21:44;4.83;;;3.73;;
6193;SDS011;3130;41.564;23.280;2023-04-16T09:24:12;4.83;;;3.10;;
6193;SDS011;3130;41.564;23.280;2023-04-16T09:26:40;5.20;;;4.10;;
6193;SDS011;3130;41.564;23.280;2023-04-16T09:29:08;7.57;;;4.10;;
6193;SDS011;3130;41.564;23.280;2023-04-16T09:31:35;5.60;;;3.63;;
6193;SDS011;3130;41.564;23.280;2023-04-16T09:34:02;3.67;;;2.63;;
6193;SDS011;3130;41.564;23.280;2023-04-16T09:36:30;4.77;;;3.20;;
6193;SDS011;3130;41.564;23.280;2023-04-16T09:39:00;6.47;;;3.67;;
6193;SDS011;3130;41.564;23.280;2023-04-16T09:41:28;7.40;;;3.53;;
6193;SDS011;3130;41.564;23.280;2023-04-16T09:43:56;4.40;;;2.97;;
6193;SDS011;3130;41.564;23.280;2023-04-16T09:46:24;4.83;;;3.10;;
6193;SDS011;3130;41.564;23.280;2023-04-16T09:48:55;3.07;;;2.57;;
6193;SDS011;3130;41.564;23.280;2023-04-16T09:51:22;2.83;;;2.37;;
6193;SDS011;3130;41.564;23.280;2023-04-16T09:53:51;8.43;;;4.10;;
6193;SDS011;3130;41.564;23.280;2023-04-16T09:56:23;7.50;;;4.87;;
6193;SDS011;3130;41.564;23.280;2023-04-16T09:58:55;6.27;;;4.23;;
6193;SDS011;3130;41.564;23.280;2023-04-16T10:01:22;7.27;;;4.50;;
6193;SDS011;3130;41.564;23.280;2023-04-16T10:03:52;5.07;;;3.50;;
6193;SDS011;3130;41.564;23.280;2023-04-16T10:06:20;3.97;;;2.80;;
6193;SDS011;3130;41.564;23.280;2023-04-16T10:08:49;6.10;;;3.30;;
6193;SDS011;3130;41.564;23.280;2023-04-16T10:11:18;3.93;;;2.63;;
6193;SDS011;3130;41.564;23.280;2023-04-16T10:13:47;8.00;;;4.83;;
6193;SDS011;3130;41.564;23.280;2023-04-16T10:16:15;11.67;;;7.53;;
6193;SDS011;3130;41.564;23.280;2023-04-16T10:18:43;5.17;;;3.47;;
6193;SDS011;3130;41.564;23.280;2023-04-16T10:21:11;8.53;;;4.17;;
6193;SDS011;3130;41.564;23.280;2023-04-16T10:23:40;5.13;;;4.60;;
6193;SDS011;3130;41.564;23.280;2023-04-16T10:26:08;6.27;;;3.70;;
6193;SDS011;3130;41.564;23.280;2023-04-16T10:28:35;5.10;;;3.20;;
6193;SDS011;3130;41.564;23.280;2023-04-16T10:31:04;4.70;;;2.40;;
6193;SDS011;3130;41.564;23.280;2023-04-16T10:33:33;5.33;;;3.03;;
6193;SDS011;3130;41.564;23.280;2023-04-16T10:36:06;4.20;;;3.40;;
6193;SDS011;3130;41.564;23.280;2023-04-16T10:38:36;4.00;;;2.97;;
6193;SDS011;3130;41.564;23.280;2023-04-16T10:41:05;4.83;;;2.90;;
6193;SDS011;3130;41.564;23.280;2023-04-16T10:43:37;4.13;;;2.70;;
6193;SDS011;3130;41.564;23.280;2023-04-16T10:46:19;6.73;;;4.10;;
6193;SDS011;3130;41.564;23.280;2023-04-16T10:48:49;2.90;;;2.60;;
6193;SDS011;3130;41.564;23.280;2023-04-16T10:54:17;4.47;;;3.43;;
6193;SDS011;3130;41.564;23.280;2023-04-16T10:56:46;4.23;;;3.50;;
6193;SDS011;3130;41.564;23.280;2023-04-16T10:59:16;4.60;;;2.83;;
6193;SDS011;3130;41.564;23.280;2023-04-16T11:01:46;3.50;;;2.80;;
6193;SDS011;3130;41.564;23.280;2023-04-16T11:04:25;3.90;;;3.03;;
6193;SDS011;3130;41.564;23.280;2023-04-16T11:06:59;5.50;;;3.80;;
6193;SDS011;3130;41.564;23.280;2023-04-16T11:09:43;6.13;;;2.77;;
6193;SDS011;3130;41.564;23.280;2023-04-16T11:12:22;5.97;;;3.63;;
6193;SDS011;3130;41.564;23.280;2023-04-16T11:14:52;6.53;;;3.10;;
6193;SDS011;3130;41.564;23.280;2023-04-16T11:17:21;5.80;;;3.80;;
6193;SDS011;3130;41.564;23.280;2023-04-16T11:19:48;6.00;;;3.63;;
6193;SDS011;3130;41.564;23.280;2023-04-16T11:22:16;7.13;;;3.97;;
6193;SDS011;3130;41.564;23.280;2023-04-16T11:24:43;5.87;;;3.77;;
6193;SDS011;3130;41.564;23.280;2023-04-16T11:27:12;6.73;;;3.43;;
6193;SDS011;3130;41.564;23.280;2023-04-16T11:29:40;8.10;;;4.73;;
6193;SDS011;3130;41.564;23.280;2023-04-16T11:32:07;8.57;;;3.80;;
6193;SDS011;3130;41.564;23.280;2023-04-16T11:34:43;6.03;;;3.20;;
6193;SDS011;3130;41.564;23.280;2023-04-16T11:37:11;5.20;;;3.80;;
6193;SDS011;3130;41.564;23.280;2023-04-16T11:39:48;5.67;;;4.13;;
6193;SDS011;3130;41.564;23.280;2023-04-16T11:42:20;7.10;;;3.93;;
6193;SDS011;3130;41.564;23.280;2023-04-16T11:44:55;9.50;;;4.53;;
6193;SDS011;3130;41.564;23.280;2023-04-16T11:47:24;6.00;;;4.03;;
6193;SDS011;3130;41.564;23.280;2023-04-16T11:49:53;11.33;;;5.07;;
6193;SDS011;3130;41.564;23.280;2023-04-16T11:52:24;7.27;;;4.43;;
6193;SDS011;3130;41.564;23.280;2023-04-16T11:54:52;10.60;;;4.60;;
6193;SDS011;3130;41.564;23.280;2023-04-16T11:57:25;6.93;;;4.93;;
6193;SDS011;3130;41.564;23.280;2023-04-16T11:59:54;6.60;;;4.90;;
6193;SDS011;3130;41.564;23.280;2023-04-16T12:02:34;6.90;;;3.83;;
6193;SDS011;3130;41.564;23.280;2023-04-16T12:05:04;12.10;;;4.50;;
6193;SDS011;3130;41.564;23.280;2023-04-16T12:07:42;9.20;;;4.23;;
6193;SDS011;3130;41.564;23.280;2023-04-16T12:10:10;7.13;;;3.97;;
6193;SDS011;3130;41.564;23.280;2023-04-16T12:12:37;6.03;;;3.60;;
6193;SDS011;3130;41.564;23.280;2023-04-16T12:15:05;10.43;;;4.30;;
6193;SDS011;3130;41.564;23.280;2023-04-16T12:17:32;9.93;;;3.60;;
6193;SDS011;3130;41.564;23.280;2023-04-16T12:20:01;6.00;;;3.67;;
6193;SDS011;3130;41.564;23.280;2023-04-16T12:22:34;13.23;;;5.13;;
6193;SDS011;3130;41.564;23.280;2023-04-16T12:25:03;8.23;;;4.23;;
6193;SDS011;3130;41.564;23.280;2023-04-16T12:27:44;5.90;;;3.67;;
6193;SDS011;3130;41.564;23.280;2023-04-16T12:30:12;5.47;;;4.13;;
6193;SDS011;3130;41.564;23.280;2023-04-16T12:32:40;9.87;;;4.43;;
6193;SDS011;3130;41.564;23.280;2023-04-16T12:35:10;10.93;;;4.47;;
6193;SDS011;3130;41.564;23.280;2023-04-16T12:37:38;6.57;;;3.60;;
6193;SDS011;3130;41.564;23.280;2023-04-16T12:40:07;7.83;;;3.97;;
6193;SDS011;3130;41.564;23.280;2023-04-16T12:42:35;6.00;;;3.57;;
6193;SDS011;3130;41.564;23.280;2023-04-16T12:45:03;8.57;;;3.53;;
6193;SDS011;3130;41.564;23.280;2023-04-16T12:47:31;6.10;;;3.30;;
6193;SDS011;3130;41.564;23.280;2023-04-16T12:49:59;8.77;;;4.70;;
6193;SDS011;3130;41.564;23.280;2023-04-16T12:52:28;6.53;;;4.20;;
6193;SDS011;3130;41.564;23.280;2023-04-16T12:54:56;4.37;;;3.07;;
6193;SDS011;3130;41.564;23.280;2023-04-16T12:57:23;6.73;;;3.30;;
6193;SDS011;3130;41.564;23.280;2023-04-16T12:59:53;4.03;;;2.93;;
6193;SDS011;3130;41.564;23.280;2023-04-16T13:02:21;3.93;;;3.50;;
6193;SDS011;3130;41.564;23.280;2023-04-16T13:04:48;7.73;;;3.23;;
6193;SDS011;3130;41.564;23.280;2023-04-16T13:07:16;6.37;;;3.43;;
6193;SDS011;3130;41.564;23.280;2023-04-16T13:09:45;10.10;;;3.83;;
6193;SDS011;3130;41.564;23.280;2023-04-16T13:12:12;14.53;;;4.77;;
6193;SDS011;3130;41.564;23.280;2023-04-16T13:14:39;7.00;;;4.10;;
6193;SDS011;3130;41.564;23.280;2023-04-16T13:17:07;4.93;;;2.90;;
6193;SDS011;3130;41.564;23.280;2023-04-16T13:19:34;5.60;;;3.17;;
6193;SDS011;3130;41.564;23.280;2023-04-16T13:22:01;3.27;;;2.80;;
6193;SDS011;3130;41.564;23.280;2023-04-16T13:24:29;2.93;;;2.63;;
6193;SDS011;3130;41.564;23.280;2023-04-16T13:27:05;6.63;;;3.43;;
6193;SDS011;3130;41.564;23.280;2023-04-16T13:29:33;5.03;;;2.77;;
6193;SDS011;3130;41.564;23.280;2023-04-16T13:32:01;5.83;;;3.53;;
6193;SDS011;3130;41.564;23.280;2023-04-16T13:34:29;3.63;;;2.27;;
6193;SDS011;3130;41.564;23.280;2023-04-16T13:36:56;5.70;;;4.00;;
6193;SDS011;3130;41.564;23.280;2023-04-16T13:39:23;3.40;;;3.00;;
6193;SDS011;3130;41.564;23.280;2023-04-16T13:41:51;3.27;;;2.97;;
6193;SDS011;3130;41.564;23.280;2023-04-16T13:44:19;3.47;;;2.97;;
6193;SDS011;3130;41.564;23.280;2023-04-16T13:46:46;3.17;;;2.77;;
6193;SDS011;3130;41.564;23.280;2023-04-16T13:49:14;4.17;;;2.80;;
6193;SDS011;3130;41.564;23.280;2023-04-16T13:51:41;5.63;;;3.07;;
6193;SDS011;3130;41.564;23.280;2023-04-16T13:54:11;4.67;;;3.27;;
6193;SDS011;3130;41.564;23.280;2023-04-16T13:56:38;2.67;;;2.43;;
6193;SDS011;3130;41.564;23.280;2023-04-16T13:59:11;6.40;;;2.43;;
6193;SDS011;3130;41.564;23.280;2023-04-16T14:01:41;3.53;;;2.67;;
6193;SDS011;3130;41.564;23.280;2023-04-16T14:04:08;3.43;;;2.67;;
6193;SDS011;3130;41.564;23.280;2023-04-16T14:06:35;2.60;;;2.40;;
6193;SDS011;3130;41.564;23.280;2023-04-16T14:09:08;3.63;;;2.80;;
6193;SDS011;3130;41.564;23.280;2023-04-16T14:11:35;3.10;;;2.80;;
6193;SDS011;3130;41.564;23.280;2023-04-16T14:14:02;6.50;;;4.43;;
6193;SDS011;3130;41.564;23.280;2023-04-16T14:16:30;6.00;;;4.37;;
6193;SDS011;3130;41.564;23.280;2023-04-16T14:18:58;5.60;;;5.00;;
6193;SDS011;3130;41.564;23.280;2023-04-16T14:21:26;6.47;;;4.73;;
6193;SDS011;3130;41.564;23.280;2023-04-16T14:23:53;6.57;;;4.90;;
6193;SDS011;3130;41.564;23.280;2023-04-16T14:26:20;3.60;;;3.10;;
6193;SDS011;3130;41.564;23.280;2023-04-16T14:28:47;4.63;;;3.90;;
6193;SDS011;3130;41.564;23.280;2023-04-16T14:31:15;6.80;;;3.13;;
6193;SDS011;3130;41.564;23.280;2023-04-16T14:33:44;5.50;;;3.20;;
6193;SDS011;3130;41.564;23.280;2023-04-16T14:36:12;3.90;;;3.50;;
6193;SDS011;3130;41.564;23.280;2023-04-16T14:38:39;3.20;;;2.77;;
6193;SDS011;3130;41.564;23.280;2023-04-16T14:41:07;4.23;;;3.27;;
6193;SDS011;3130;41.564;23.280;2023-04-16T14:43:34;7.60;;;3.57;;
6193;SDS011;3130;41.564;23.280;2023-04-16T14:46:03;5.17;;;4.77;;
6193;SDS011;3130;41.564;23.280;2023-04-16T14:48:31;3.73;;;3.30;;
6193;SDS011;3130;41.564;23.280;2023-04-16T14:50:59;3.73;;;2.80;;
6193;SDS011;3130;41.564;23.280;2023-04-16T14:53:28;3.53;;;3.23;;
6193;SDS011;3130;41.564;23.280;2023-04-16T14:55:55;3.93;;;3.33;;
6193;SDS011;3130;41.564;23.280;2023-04-16T14:58:23;4.20;;;3.80;;
6193;SDS011;3130;41.564;23.280;2023-04-16T15:00:51;6.10;;;3.40;;
6193;SDS011;3130;41.564;23.280;2023-04-16T15:03:18;4.83;;;2.77;;
6193;SDS011;3130;41.564;23.280;2023-04-16T15:05:45;8.13;;;3.63;;